createdAt,value
2022-08-18T00:00:26.470Z,18.21
2022-08-18T00:01:26.504Z,18.20
2022-08-18T00:02:30.095Z,18.19
2022-08-18T00:03:52.991Z,18.18
2022-08-18T00:04:36.600Z,18.19
2022-08-18T00:05:26.484Z,18.18
2022-08-18T00:06:28.677Z,18.17
2022-08-18T00:07:26.471Z,18.15
2022-08-18T00:08:26.498Z,18.14
2022-08-18T00:09:30.254Z,18.13
2022-08-18T00:10:26.509Z,18.13
2022-08-18T00:11:26.550Z,18.10
2022-08-18T00:12:26.490Z,18.07
2022-08-18T00:13:26.519Z,18.06
2022-08-18T00:14:26.505Z,18.02
2022-08-18T00:15:26.503Z,18.00
2022-08-18T00:16:26.497Z,17.98
2022-08-18T00:17:26.493Z,17.97
2022-08-18T00:18:26.492Z,17.95
2022-08-18T00:19:45.546Z,17.94
2022-08-18T00:20:26.527Z,17.93
2022-08-18T00:21:26.483Z,17.90
2022-08-18T00:22:26.504Z,17.88
2022-08-18T00:23:26.516Z,17.87
2022-08-18T00:24:26.557Z,17.85
2022-08-18T00:25:26.527Z,17.82
2022-08-18T00:26:26.522Z,17.79
2022-08-18T00:27:28.582Z,17.76
2022-08-18T00:28:26.501Z,17.71
2022-08-18T00:29:26.542Z,17.69
2022-08-18T00:30:26.538Z,17.67
2022-08-18T00:31:26.500Z,17.65
2022-08-18T00:32:26.547Z,17.63
2022-08-18T00:33:26.525Z,17.61
2022-08-18T00:34:26.537Z,17.59
2022-08-18T00:35:26.530Z,17.58
2022-08-18T00:36:26.634Z,17.55
2022-08-18T00:37:26.639Z,17.54
2022-08-18T00:38:26.664Z,17.52
2022-08-18T00:39:26.776Z,17.50
2022-08-18T00:40:26.697Z,17.49
2022-08-18T00:41:26.682Z,17.48
2022-08-18T00:42:27.309Z,17.46
2022-08-18T00:43:26.681Z,17.46
2022-08-18T00:44:26.677Z,17.44
2022-08-18T00:45:26.675Z,17.43
2022-08-18T00:46:26.685Z,17.41
2022-08-18T00:47:36.437Z,17.39
2022-08-18T00:48:26.681Z,17.37
2022-08-18T00:49:26.702Z,17.35
2022-08-18T00:50:26.676Z,17.34
2022-08-18T00:51:26.701Z,17.32
2022-08-18T00:52:26.688Z,17.31
2022-08-18T00:53:26.676Z,17.31
2022-08-18T00:54:26.742Z,17.30
2022-08-18T00:55:26.682Z,17.29
2022-08-18T00:56:26.690Z,17.30
2022-08-18T00:57:26.692Z,17.29
2022-08-18T00:58:26.681Z,17.29
2022-08-18T00:59:26.688Z,17.28
2022-08-18T01:00:26.709Z,17.28
2022-08-18T01:01:26.724Z,17.29
2022-08-18T01:02:26.697Z,17.29
2022-08-18T01:03:26.728Z,17.29
2022-08-18T01:04:26.705Z,17.29
2022-08-18T01:05:26.761Z,17.29
2022-08-18T01:06:26.703Z,17.28
2022-08-18T01:07:26.749Z,17.27
2022-08-18T01:08:28.995Z,17.29
2022-08-18T01:09:26.708Z,17.29
2022-08-18T01:10:26.710Z,17.30
2022-08-18T01:11:26.715Z,17.30
2022-08-18T01:12:45.118Z,17.31
2022-08-18T01:13:26.693Z,17.30
2022-08-18T01:14:26.692Z,17.31
2022-08-18T01:15:28.308Z,17.30
2022-08-18T01:16:26.699Z,17.30
2022-08-18T01:17:26.726Z,17.29
2022-08-18T01:18:26.697Z,17.28
2022-08-18T01:19:26.732Z,17.29
2022-08-18T01:20:26.944Z,17.29
2022-08-18T01:21:26.715Z,17.29
2022-08-18T01:22:26.730Z,17.29
2022-08-18T01:23:26.699Z,17.30
2022-08-18T01:24:26.738Z,17.30
2022-08-18T01:25:26.691Z,17.30
2022-08-18T01:26:26.714Z,17.31
2022-08-18T01:27:26.719Z,17.31
2022-08-18T01:28:26.733Z,17.30
2022-08-18T01:29:26.717Z,17.30
2022-08-18T01:30:26.720Z,17.31
2022-08-18T01:31:26.727Z,17.31
2022-08-18T01:32:26.745Z,17.30
2022-08-18T01:33:26.775Z,17.29
2022-08-18T01:34:26.752Z,17.30
2022-08-18T01:35:26.705Z,17.29
2022-08-18T01:36:26.728Z,17.29
2022-08-18T01:37:26.731Z,17.25
2022-08-18T01:38:26.724Z,17.25
2022-08-18T01:41:17.456Z,17.27
2022-08-18T01:41:23.963Z,17.26
2022-08-18T01:41:30.463Z,17.28
2022-08-18T01:42:26.730Z,17.31
2022-08-18T01:43:26.745Z,17.30
2022-08-18T01:44:26.762Z,17.32
2022-08-18T01:45:26.752Z,17.32
2022-08-18T01:46:26.737Z,17.33
2022-08-18T01:47:26.739Z,17.34
2022-08-18T01:48:26.756Z,17.35
2022-08-18T01:49:26.751Z,17.34
2022-08-18T01:50:26.757Z,17.33
2022-08-18T01:51:38.875Z,17.33
2022-08-18T01:52:26.752Z,17.32
2022-08-18T01:53:26.761Z,17.30
2022-08-18T01:54:26.743Z,17.28
2022-08-18T01:55:26.731Z,17.27
2022-08-18T01:56:26.784Z,17.28
2022-08-18T01:57:26.818Z,17.30
2022-08-18T01:58:31.080Z,17.29
2022-08-18T01:59:26.775Z,17.31
2022-08-18T02:00:26.751Z,17.32
2022-08-18T02:01:36.498Z,17.33
2022-08-18T02:02:26.852Z,17.33
2022-08-18T02:03:26.766Z,17.37
2022-08-18T02:04:36.142Z,17.37
2022-08-18T02:05:26.764Z,17.38
2022-08-18T02:06:33.568Z,17.38
2022-08-18T02:07:27.975Z,17.42
2022-08-18T02:08:28.164Z,17.43
2022-08-18T02:09:26.784Z,17.42
2022-08-18T02:10:26.756Z,17.43
2022-08-18T02:11:26.769Z,17.44
2022-08-18T02:12:26.750Z,17.44
2022-08-18T02:13:26.755Z,17.44
2022-08-18T02:14:27.277Z,17.44
2022-08-18T02:15:26.770Z,17.43
2022-08-18T02:16:26.806Z,17.43
2022-08-18T02:17:26.759Z,17.43
2022-08-18T02:18:47.974Z,17.43
2022-08-18T02:19:26.786Z,17.43
2022-08-18T02:20:26.783Z,17.41
2022-08-18T02:21:26.760Z,17.40
2022-08-18T02:22:26.782Z,17.39
2022-08-18T02:23:26.770Z,17.38
2022-08-18T02:24:26.804Z,17.37
2022-08-18T02:25:26.773Z,17.36
2022-08-18T02:26:26.778Z,17.35
2022-08-18T02:27:26.760Z,17.36
2022-08-18T02:28:30.613Z,17.34
2022-08-18T02:29:26.785Z,17.35
2022-08-18T02:30:26.784Z,17.33
2022-08-18T02:31:26.776Z,17.33
2022-08-18T02:32:26.814Z,17.33
2022-08-18T02:33:26.796Z,17.34
2022-08-18T02:34:28.049Z,17.34
2022-08-18T02:35:26.815Z,17.34
2022-08-18T02:36:26.836Z,17.35
2022-08-18T02:37:26.858Z,17.35
2022-08-18T02:38:26.863Z,17.34
2022-08-18T02:39:26.963Z,17.34
2022-08-18T02:40:26.839Z,17.33
2022-08-18T02:41:26.864Z,17.33
2022-08-18T02:42:26.864Z,17.32
2022-08-18T02:43:26.874Z,17.33
2022-08-18T02:44:26.885Z,17.32
2022-08-18T02:45:26.896Z,17.33
2022-08-18T02:46:29.738Z,17.30
2022-08-18T02:47:30.279Z,17.29
2022-08-18T02:48:26.925Z,17.29
2022-08-18T02:49:26.939Z,17.30
2022-08-18T02:50:26.935Z,17.30
2022-08-18T02:51:26.937Z,17.30
2022-08-18T02:52:26.915Z,17.32
2022-08-18T02:53:26.900Z,17.33
2022-08-18T02:55:00.134Z,17.35
2022-08-18T02:56:00.140Z,17.37
2022-08-18T02:57:00.146Z,17.38
2022-08-18T02:58:00.140Z,17.39
2022-08-18T02:59:00.141Z,17.42
2022-08-18T03:00:00.162Z,17.43
2022-08-18T03:01:00.219Z,17.45
2022-08-18T03:02:00.156Z,17.46
2022-08-18T03:03:00.154Z,17.47
2022-08-18T03:04:00.152Z,17.49
2022-08-18T03:05:00.168Z,17.51
2022-08-18T03:06:00.166Z,17.51
2022-08-18T03:07:00.158Z,17.51
2022-08-18T03:08:00.186Z,17.52
2022-08-18T03:09:00.153Z,17.53
2022-08-18T03:10:05.712Z,17.53
2022-08-18T03:11:00.145Z,17.56
2022-08-18T03:12:00.191Z,17.57
2022-08-18T03:13:00.150Z,17.57
2022-08-18T03:14:00.175Z,17.58
2022-08-18T03:15:00.194Z,17.59
2022-08-18T03:16:00.158Z,17.58
2022-08-18T03:17:00.170Z,17.59
2022-08-18T03:18:00.160Z,17.58
2022-08-18T03:19:00.172Z,17.59
2022-08-18T03:20:00.873Z,17.59
2022-08-18T03:21:00.188Z,17.60
2022-08-18T03:22:02.844Z,17.60
2022-08-18T03:23:05.846Z,17.61
2022-08-18T03:24:00.514Z,17.60
2022-08-18T03:25:00.212Z,17.61
2022-08-18T03:26:00.188Z,17.61
2022-08-18T03:27:00.183Z,17.60
2022-08-18T03:28:00.171Z,17.59
2022-08-18T03:29:00.238Z,17.57
2022-08-18T03:30:00.336Z,17.57
2022-08-18T03:31:00.356Z,17.57
2022-08-18T03:32:00.351Z,17.55
2022-08-18T03:33:00.398Z,17.55
2022-08-18T03:34:00.369Z,17.54
2022-08-18T03:35:00.407Z,17.54
2022-08-18T03:36:00.381Z,17.54
2022-08-18T03:37:00.407Z,17.54
2022-08-18T03:38:00.432Z,17.53
2022-08-18T03:39:00.414Z,17.52
2022-08-18T03:40:00.545Z,17.50
2022-08-18T03:41:00.460Z,17.47
2022-08-18T03:42:01.977Z,17.47
2022-08-18T03:43:02.061Z,17.46
2022-08-18T03:44:00.476Z,17.46
2022-08-18T03:45:00.524Z,17.46
2022-08-18T03:46:00.517Z,17.46
2022-08-18T03:47:00.471Z,17.48
2022-08-18T03:48:00.513Z,17.49
2022-08-18T03:49:00.503Z,17.50
2022-08-18T03:50:00.534Z,17.52
2022-08-18T03:51:04.838Z,17.53
2022-08-18T03:52:00.521Z,17.54
2022-08-18T03:53:00.541Z,17.54
2022-08-18T03:54:00.494Z,17.55
2022-08-18T03:55:00.531Z,17.55
2022-08-18T03:56:00.519Z,17.55
2022-08-18T03:57:00.650Z,17.56
2022-08-18T03:58:00.487Z,17.58
2022-08-18T03:59:00.536Z,17.58
2022-08-18T04:00:00.533Z,17.60
2022-08-18T04:01:00.603Z,17.61
2022-08-18T04:02:00.646Z,17.64
2022-08-18T04:03:00.530Z,17.64
2022-08-18T04:04:00.547Z,17.66
2022-08-18T04:05:00.558Z,17.66
2022-08-18T04:06:00.524Z,17.67
2022-08-18T04:07:00.549Z,17.66
2022-08-18T04:08:00.571Z,17.67
2022-08-18T04:09:00.568Z,17.67
2022-08-18T04:10:00.579Z,17.67
2022-08-18T04:11:00.592Z,17.67
2022-08-18T04:12:00.617Z,17.67
2022-08-18T04:13:00.605Z,17.69
2022-08-18T04:14:00.598Z,17.69
2022-08-18T04:15:00.646Z,17.69
2022-08-18T04:16:00.651Z,17.70
2022-08-18T04:17:00.659Z,17.70
2022-08-18T04:18:03.421Z,17.70
2022-08-18T04:19:00.701Z,17.69
2022-08-18T04:20:00.667Z,17.70
2022-08-18T04:21:00.659Z,17.69
2022-08-18T04:22:00.695Z,17.69
2022-08-18T04:23:00.668Z,17.69
2022-08-18T04:24:00.660Z,17.70
2022-08-18T04:25:00.709Z,17.70
2022-08-18T04:26:00.672Z,17.71
2022-08-18T04:27:00.670Z,17.71
2022-08-18T04:28:00.703Z,17.72
2022-08-18T04:29:00.667Z,17.74
2022-08-18T04:30:00.698Z,17.75
2022-08-18T04:31:00.669Z,17.75
2022-08-18T04:32:00.696Z,17.76
2022-08-18T04:33:00.662Z,17.75
2022-08-18T04:34:00.688Z,17.77
2022-08-18T04:35:02.855Z,17.77
2022-08-18T04:36:00.687Z,17.79
2022-08-18T04:37:00.681Z,17.80
2022-08-18T04:38:00.702Z,17.79
2022-08-18T04:39:00.695Z,17.81
2022-08-18T04:40:00.778Z,17.81
2022-08-18T04:41:00.686Z,17.81
2022-08-18T04:42:00.690Z,17.81
2022-08-18T04:43:00.706Z,17.81
2022-08-18T04:44:00.722Z,17.81
2022-08-18T04:45:00.702Z,17.81
2022-08-18T04:46:00.691Z,17.81
2022-08-18T04:47:00.696Z,17.82
2022-08-18T04:48:00.713Z,17.83
2022-08-18T04:49:00.734Z,17.83
2022-08-18T04:50:00.745Z,17.84
2022-08-18T04:51:00.759Z,17.85
2022-08-18T04:52:26.635Z,17.86
2022-08-18T04:53:00.778Z,17.86
2022-08-18T04:54:00.777Z,17.88
2022-08-18T04:55:00.773Z,17.89
2022-08-18T04:56:00.791Z,17.90
2022-08-18T04:57:00.771Z,17.90
2022-08-18T04:58:00.778Z,17.90
2022-08-18T04:59:00.785Z,17.92
2022-08-18T05:00:00.775Z,17.93
2022-08-18T05:01:00.829Z,17.94
2022-08-18T05:02:00.811Z,17.95
2022-08-18T05:03:00.795Z,17.96
2022-08-18T05:04:00.782Z,17.97
2022-08-18T05:05:00.796Z,17.97
2022-08-18T05:06:00.826Z,17.99
2022-08-18T05:07:00.785Z,18.00
2022-08-18T05:08:00.786Z,18.01
2022-08-18T05:09:00.794Z,18.02
2022-08-18T05:10:00.838Z,18.05
2022-08-18T05:11:04.133Z,18.04
2022-08-18T05:12:00.814Z,18.06
2022-08-18T05:13:00.771Z,18.05
2022-08-18T05:14:00.806Z,18.07
2022-08-18T05:15:00.842Z,18.07
2022-08-18T05:16:10.796Z,18.07
2022-08-18T05:17:00.820Z,18.09
2022-08-18T05:18:00.822Z,18.10
2022-08-18T05:19:00.813Z,18.09
2022-08-18T05:20:01.619Z,18.10
2022-08-18T05:21:00.830Z,18.11
2022-08-18T05:22:03.004Z,18.10
2022-08-18T05:23:00.907Z,18.10
2022-08-18T05:24:00.898Z,18.10
2022-08-18T05:25:00.939Z,18.11
2022-08-18T05:26:00.943Z,18.14
2022-08-18T05:27:00.932Z,18.15
2022-08-18T05:28:00.961Z,18.17
2022-08-18T05:29:17.715Z,18.18
2022-08-18T05:30:00.989Z,18.23
2022-08-18T05:31:00.961Z,18.24
2022-08-18T05:32:00.977Z,18.26
2022-08-18T05:33:00.974Z,18.27
2022-08-18T05:34:00.970Z,18.28
2022-08-18T05:35:00.991Z,18.29
2022-08-18T05:36:00.977Z,18.31
2022-08-18T05:37:00.986Z,18.33
2022-08-18T05:38:00.996Z,18.34
2022-08-18T05:39:00.958Z,18.38
2022-08-18T05:40:01.084Z,18.39
2022-08-18T05:41:00.979Z,18.41
2022-08-18T05:42:00.971Z,18.42
2022-08-18T05:43:00.997Z,18.42
2022-08-18T05:44:00.979Z,18.41
2022-08-18T05:45:00.996Z,18.42
2022-08-18T05:46:00.993Z,18.42
2022-08-18T05:47:00.990Z,18.45
2022-08-18T05:48:00.962Z,18.46
2022-08-18T05:49:00.983Z,18.50
2022-08-18T05:50:01.007Z,18.52
2022-08-18T05:51:00.973Z,18.54
2022-08-18T05:52:01.021Z,18.56
2022-08-18T05:53:00.987Z,18.57
2022-08-18T05:54:01.008Z,18.59
2022-08-18T05:55:01.018Z,18.60
2022-08-18T05:56:00.994Z,18.62
2022-08-18T05:57:01.002Z,18.63
2022-08-18T05:58:01.008Z,18.65
2022-08-18T05:59:00.996Z,18.66
2022-08-18T06:00:01.012Z,18.68
2022-08-18T06:01:01.003Z,18.70
2022-08-18T06:02:00.995Z,18.70
2022-08-18T06:03:01.067Z,18.71
2022-08-18T06:04:01.000Z,18.73
2022-08-18T06:05:01.015Z,18.73
2022-08-18T06:06:00.998Z,18.73
2022-08-18T06:07:01.008Z,18.74
2022-08-18T06:08:01.017Z,18.75
2022-08-18T06:09:01.043Z,18.75
2022-08-18T06:10:01.013Z,18.75
2022-08-18T06:11:01.028Z,18.76
2022-08-18T06:12:01.019Z,18.78
2022-08-18T06:13:01.009Z,18.78
2022-08-18T06:14:01.043Z,18.80
2022-08-18T06:15:01.078Z,18.83
2022-08-18T06:16:01.048Z,18.85
2022-08-18T06:17:01.042Z,18.88
2022-08-18T06:18:01.071Z,18.91
2022-08-18T06:19:01.069Z,18.94
2022-08-18T06:20:01.085Z,18.95
2022-08-18T06:21:01.052Z,18.96
2022-08-18T06:22:01.056Z,18.98
2022-08-18T06:23:01.047Z,18.99
2022-08-18T06:24:01.068Z,19.00
2022-08-18T06:25:01.088Z,19.02
2022-08-18T06:26:01.084Z,19.04
2022-08-18T06:27:01.053Z,19.06
2022-08-18T06:28:01.057Z,19.10
2022-08-18T06:29:01.068Z,19.13
2022-08-18T06:30:01.305Z,19.17
2022-08-18T06:31:01.082Z,19.24
2022-08-18T06:32:01.071Z,19.26
2022-08-18T06:33:01.085Z,19.30
2022-08-18T06:34:01.068Z,19.34
2022-08-18T06:35:01.071Z,19.38
2022-08-18T06:36:01.085Z,19.43
2022-08-18T06:37:01.066Z,19.47
2022-08-18T06:38:01.076Z,19.51
2022-08-18T06:39:01.085Z,19.55
2022-08-18T06:40:01.126Z,19.59
2022-08-18T06:41:01.106Z,19.65
2022-08-18T06:42:01.110Z,19.72
2022-08-18T06:43:02.042Z,19.75
2022-08-18T06:44:01.101Z,19.77
2022-08-18T06:45:01.099Z,19.80
2022-08-18T06:46:01.108Z,19.81
2022-08-18T06:47:01.100Z,19.82
2022-08-18T06:48:01.079Z,19.82
2022-08-18T06:49:01.084Z,19.85
2022-08-18T06:50:01.101Z,19.87
2022-08-18T06:51:01.098Z,19.87
2022-08-18T06:52:01.088Z,19.88
2022-08-18T06:53:01.094Z,19.90
2022-08-18T06:54:01.097Z,19.91
2022-08-18T06:55:01.153Z,19.92
2022-08-18T06:56:01.120Z,19.94
2022-08-18T06:57:01.108Z,19.96
2022-08-18T06:58:01.146Z,19.98
2022-08-18T06:59:01.148Z,19.98
2022-08-18T07:00:01.191Z,19.98
2022-08-18T07:01:01.227Z,20.00
2022-08-18T07:02:01.186Z,20.00
2022-08-18T07:03:01.224Z,20.00
2022-08-18T07:04:01.220Z,19.99
2022-08-18T07:05:01.240Z,20.00
2022-08-18T07:06:01.245Z,20.01
2022-08-18T07:07:01.233Z,20.02
2022-08-18T07:08:01.269Z,20.03
2022-08-18T07:09:01.293Z,20.04
2022-08-18T07:10:01.290Z,20.05
2022-08-18T07:11:01.286Z,20.06
2022-08-18T07:12:01.300Z,20.06
2022-08-18T07:13:01.330Z,20.04
2022-08-18T07:14:16.184Z,20.05
2022-08-18T07:15:01.358Z,20.05
2022-08-18T07:16:01.342Z,20.06
2022-08-18T07:17:01.356Z,20.06
2022-08-18T07:18:01.366Z,20.07
2022-08-18T07:19:01.341Z,20.05
2022-08-18T07:20:01.357Z,20.04
2022-08-18T07:21:01.325Z,20.04
2022-08-18T07:22:01.320Z,20.03
2022-08-18T07:23:01.350Z,20.01
2022-08-18T07:24:23.143Z,19.99
2022-08-18T07:25:05.160Z,19.99
2022-08-18T07:26:01.329Z,20.00
2022-08-18T07:27:01.368Z,19.99
2022-08-18T07:28:01.356Z,19.98
2022-08-18T07:29:01.367Z,19.99
2022-08-18T07:30:01.362Z,20.00
2022-08-18T07:31:16.522Z,20.00
2022-08-18T07:32:01.348Z,19.99
2022-08-18T07:33:01.342Z,19.98
2022-08-18T07:34:01.366Z,19.99
2022-08-18T07:35:01.375Z,20.00
2022-08-18T07:36:01.363Z,19.99
2022-08-18T07:37:01.377Z,20.01
2022-08-18T07:38:13.795Z,20.02
2022-08-18T07:39:01.671Z,20.04
2022-08-18T07:40:01.448Z,20.03
2022-08-18T07:41:01.354Z,20.03
2022-08-18T07:42:01.396Z,20.03
2022-08-18T07:43:02.365Z,20.04
2022-08-18T07:44:01.382Z,20.02
2022-08-18T07:45:01.358Z,20.00
2022-08-18T07:46:01.378Z,19.99
2022-08-18T07:47:01.365Z,19.97
2022-08-18T07:48:10.908Z,19.96
2022-08-18T07:49:01.373Z,19.94
2022-08-18T07:50:20.551Z,19.92
2022-08-18T07:51:05.312Z,19.91
2022-08-18T07:52:01.389Z,19.87
2022-08-18T07:53:01.430Z,19.87
2022-08-18T07:54:01.389Z,19.86
2022-08-18T07:55:01.409Z,19.83
2022-08-18T07:56:01.364Z,19.85
2022-08-18T07:57:01.414Z,19.86
2022-08-18T07:58:01.383Z,19.87
2022-08-18T07:59:01.398Z,19.88
2022-08-18T08:00:01.393Z,19.90
2022-08-18T08:01:01.525Z,19.93
2022-08-18T08:02:01.463Z,19.95
2022-08-18T08:03:01.444Z,19.96
2022-08-18T08:04:01.440Z,19.95
2022-08-18T08:05:01.415Z,19.95
2022-08-18T08:06:01.510Z,19.96
2022-08-18T08:07:23.306Z,19.98
2022-08-18T08:08:01.405Z,20.00
2022-08-18T08:09:01.413Z,20.03
2022-08-18T08:10:01.433Z,20.06
2022-08-18T08:11:01.428Z,20.07
2022-08-18T08:12:01.422Z,20.10
2022-08-18T08:13:08.864Z,20.12
2022-08-18T08:14:01.409Z,20.15
2022-08-18T08:15:01.433Z,20.15
2022-08-18T08:16:01.423Z,20.16
2022-08-18T08:17:01.428Z,20.16
2022-08-18T08:18:01.414Z,20.16
2022-08-18T08:19:01.430Z,20.18
2022-08-18T08:20:02.056Z,20.20
2022-08-18T08:21:01.421Z,20.22
2022-08-18T08:22:01.420Z,20.24
2022-08-18T08:23:01.416Z,20.25
2022-08-18T08:24:01.424Z,20.28
2022-08-18T08:25:01.453Z,20.27
2022-08-18T08:26:01.437Z,20.27
2022-08-18T08:27:01.435Z,20.28
2022-08-18T08:28:01.448Z,20.26
2022-08-18T08:29:01.461Z,20.26
2022-08-18T08:30:01.461Z,20.26
2022-08-18T08:31:19.103Z,20.23
2022-08-18T08:32:01.419Z,20.17
2022-08-18T08:33:01.453Z,20.11
2022-08-18T08:34:05.398Z,20.06
2022-08-18T08:35:01.464Z,20.05
2022-08-18T08:36:01.433Z,19.99
2022-08-18T08:37:01.442Z,19.98
2022-08-18T08:38:12.321Z,19.95
2022-08-18T08:39:01.437Z,19.92
2022-08-18T08:40:01.494Z,19.88
2022-08-18T08:41:01.430Z,19.88
2022-08-18T08:42:30.295Z,19.86
2022-08-18T08:43:01.453Z,19.85
2022-08-18T08:44:01.433Z,19.85
2022-08-18T08:45:01.462Z,19.85
2022-08-18T08:46:01.452Z,19.86
2022-08-18T08:47:01.464Z,19.88
2022-08-18T08:48:08.394Z,19.91
2022-08-18T08:49:01.483Z,19.91
2022-08-18T08:50:01.461Z,19.94
2022-08-18T08:51:01.463Z,19.95
2022-08-18T08:52:01.443Z,19.97
2022-08-18T08:53:01.448Z,20.04
2022-08-18T08:54:01.432Z,20.08
2022-08-18T08:55:01.487Z,20.12
2022-08-18T08:56:02.743Z,20.17
2022-08-18T08:57:01.466Z,20.20
2022-08-18T08:58:01.462Z,20.27
2022-08-18T08:59:01.452Z,20.33
2022-08-18T09:00:01.497Z,20.40
2022-08-18T09:01:01.477Z,20.44
2022-08-18T09:02:01.565Z,20.48
2022-08-18T09:03:01.468Z,20.56
2022-08-18T09:04:01.471Z,20.62
2022-08-18T09:05:09.296Z,20.66
2022-08-18T09:06:01.504Z,20.69
2022-08-18T09:07:01.485Z,20.71
2022-08-18T09:08:01.475Z,20.76
2022-08-18T09:09:01.505Z,20.86
2022-08-18T09:10:01.500Z,20.95
2022-08-18T09:11:01.478Z,21.07
2022-08-18T09:12:01.488Z,21.13
2022-08-18T09:13:01.469Z,21.23
2022-08-18T09:14:01.470Z,21.29
2022-08-18T09:15:01.525Z,21.29
2022-08-18T09:16:01.486Z,21.33
2022-08-18T09:17:01.466Z,21.36
2022-08-18T09:18:01.482Z,21.37
2022-08-18T09:19:01.513Z,21.39
2022-08-18T09:20:01.515Z,21.44
2022-08-18T09:21:01.472Z,21.44
2022-08-18T09:22:01.498Z,21.47
2022-08-18T09:23:01.520Z,21.57
2022-08-18T09:24:01.474Z,21.62
2022-08-18T09:25:01.515Z,21.63
2022-08-18T09:26:01.529Z,21.65
2022-08-18T09:27:01.556Z,21.70
2022-08-18T09:28:11.323Z,21.80
2022-08-18T09:29:01.546Z,21.95
2022-08-18T09:30:01.574Z,22.16
2022-08-18T09:31:01.546Z,22.35
2022-08-18T09:32:01.605Z,22.54
2022-08-18T09:33:01.556Z,22.74
2022-08-18T09:34:06.723Z,22.91
2022-08-18T09:35:01.583Z,23.05
2022-08-18T09:36:01.575Z,23.12
2022-08-18T09:37:01.569Z,23.01
2022-08-18T09:38:01.570Z,23.01
2022-08-18T09:39:01.562Z,23.16
2022-08-18T09:40:11.234Z,23.33
2022-08-18T09:41:03.316Z,23.53
2022-08-18T09:42:01.592Z,23.74
2022-08-18T09:43:01.610Z,23.94
2022-08-18T09:44:01.579Z,24.17
2022-08-18T09:45:01.607Z,24.36
2022-08-18T09:46:01.593Z,24.47
2022-08-18T09:47:01.584Z,24.51
2022-08-18T09:48:01.593Z,24.55
2022-08-18T09:49:01.557Z,24.51
2022-08-18T09:50:01.806Z,24.49
2022-08-18T09:51:01.623Z,24.43
2022-08-18T09:52:02.172Z,24.37
2022-08-18T09:53:04.447Z,24.32
2022-08-18T09:54:01.584Z,24.32
2022-08-18T09:55:01.589Z,24.34
2022-08-18T09:56:04.948Z,24.41
2022-08-18T09:57:01.583Z,24.49
2022-08-18T09:58:01.593Z,24.54
2022-08-18T09:59:01.581Z,24.54
2022-08-18T10:00:01.621Z,24.54
2022-08-18T10:01:01.628Z,24.50
2022-08-18T10:02:01.568Z,24.33
2022-08-18T10:03:01.575Z,24.19
2022-08-18T10:04:01.609Z,24.05
2022-08-18T10:05:01.628Z,23.91
2022-08-18T10:06:01.598Z,23.78
2022-08-18T10:07:01.592Z,23.65
2022-08-18T10:08:01.589Z,23.54
2022-08-18T10:09:01.633Z,23.48
2022-08-18T10:10:01.603Z,23.37
2022-08-18T10:11:09.133Z,23.30
2022-08-18T10:12:01.630Z,23.28
2022-08-18T10:13:01.607Z,23.28
2022-08-18T10:14:01.633Z,23.28
2022-08-18T10:15:01.657Z,23.25
2022-08-18T10:16:10.153Z,23.22
2022-08-18T10:17:23.320Z,23.22
2022-08-18T10:18:01.623Z,23.24
2022-08-18T10:19:01.606Z,23.25
2022-08-18T10:20:01.632Z,23.20
2022-08-18T10:21:01.648Z,23.18
2022-08-18T10:22:01.644Z,23.17
2022-08-18T10:23:01.629Z,23.19
2022-08-18T10:24:32.151Z,23.20
2022-08-18T10:25:20.844Z,23.24
2022-08-18T10:26:04.546Z,23.28
2022-08-18T10:27:01.623Z,23.28
2022-08-18T10:28:01.628Z,23.30
2022-08-18T10:29:01.634Z,23.28
2022-08-18T10:30:01.688Z,23.25
2022-08-18T10:31:06.306Z,23.23
2022-08-18T10:32:01.641Z,23.19
2022-08-18T10:33:10.783Z,23.14
2022-08-18T10:34:01.697Z,23.06
2022-08-18T10:35:01.651Z,22.96
2022-08-18T10:36:03.218Z,22.90
2022-08-18T10:37:01.633Z,22.82
2022-08-18T10:38:01.626Z,22.78
2022-08-18T10:39:01.624Z,22.75
2022-08-18T10:40:01.719Z,22.74
2022-08-18T10:41:09.387Z,22.72
2022-08-18T10:42:01.638Z,22.66
2022-08-18T10:43:01.668Z,22.59
2022-08-18T10:44:04.971Z,22.50
2022-08-18T10:45:01.670Z,22.40
2022-08-18T10:46:25.481Z,22.36
2022-08-18T10:47:01.681Z,22.34
2022-08-18T10:48:01.672Z,22.33
2022-08-18T10:49:04.321Z,22.30
2022-08-18T10:50:01.689Z,22.28
2022-08-18T10:51:01.674Z,22.26
2022-08-18T10:52:01.661Z,22.22
2022-08-18T10:53:24.470Z,22.22
2022-08-18T10:54:01.900Z,22.23
2022-08-18T10:55:01.682Z,22.24
2022-08-18T10:56:01.897Z,22.26
2022-08-18T10:57:01.918Z,22.27
2022-08-18T10:58:01.686Z,22.30
2022-08-18T10:59:01.668Z,22.30
2022-08-18T11:00:01.712Z,22.32
2022-08-18T11:01:01.670Z,22.33
2022-08-18T11:02:01.710Z,22.33
2022-08-18T11:03:29.928Z,22.36
2022-08-18T11:04:14.548Z,22.38
2022-08-18T11:05:01.730Z,22.39
2022-08-18T11:06:01.712Z,22.41
2022-08-18T11:07:01.664Z,22.39
2022-08-18T11:08:01.708Z,22.36
2022-08-18T11:09:01.713Z,22.39
2022-08-18T11:10:28.547Z,22.42
2022-08-18T11:11:32.701Z,22.47
2022-08-18T11:12:02.161Z,22.49
2022-08-18T11:13:04.043Z,22.52
2022-08-18T11:14:01.684Z,22.52
2022-08-18T11:15:01.704Z,22.52
2022-08-18T11:16:01.700Z,22.57
2022-08-18T11:17:01.708Z,22.62
2022-08-18T11:18:01.694Z,22.65
2022-08-18T11:19:01.701Z,22.70
2022-08-18T11:20:01.724Z,22.75
2022-08-18T11:21:01.729Z,22.79
2022-08-18T11:22:01.688Z,22.78
2022-08-18T11:23:01.714Z,22.69
2022-08-18T11:24:01.695Z,22.63
2022-08-18T11:25:02.991Z,22.60
2022-08-18T11:26:01.708Z,22.63
2022-08-18T11:27:01.702Z,22.62
2022-08-18T11:28:01.701Z,22.62
2022-08-18T11:29:01.698Z,22.65
2022-08-18T11:30:01.748Z,22.69
2022-08-18T11:31:01.707Z,22.73
2022-08-18T11:32:02.098Z,22.79
2022-08-18T11:33:03.000Z,22.84
2022-08-18T11:34:01.732Z,22.89
2022-08-18T11:35:01.741Z,22.93
2022-08-18T11:36:01.832Z,22.99
2022-08-18T11:37:01.745Z,23.06
2022-08-18T11:38:01.727Z,23.12
2022-08-18T11:39:01.709Z,23.15
2022-08-18T11:40:01.867Z,23.14
2022-08-18T11:42:01.758Z,23.15
2022-08-18T11:43:01.731Z,23.16
2022-08-18T11:44:01.760Z,23.12
2022-08-18T11:45:01.748Z,23.08
2022-08-18T11:46:01.844Z,23.04
2022-08-18T11:47:01.733Z,22.99
2022-08-18T11:48:01.755Z,22.93
2022-08-18T11:49:01.781Z,22.88
2022-08-18T11:50:04.421Z,22.85
2022-08-18T11:51:01.745Z,22.82
2022-08-18T11:52:03.305Z,22.76
2022-08-18T11:53:01.841Z,22.72
2022-08-18T11:54:01.750Z,22.72
2022-08-18T11:55:01.780Z,22.73
2022-08-18T11:56:01.772Z,22.78
2022-08-18T11:57:01.767Z,22.86
2022-08-18T11:58:01.776Z,22.95
2022-08-18T11:59:01.831Z,23.06
2022-08-18T12:00:01.788Z,23.18
2022-08-18T12:01:03.286Z,23.32
2022-08-18T12:02:01.788Z,23.46
2022-08-18T12:03:01.766Z,23.61
2022-08-18T12:04:01.762Z,23.76
2022-08-18T12:05:03.396Z,23.95
2022-08-18T12:06:01.787Z,24.15
2022-08-18T12:07:01.833Z,24.30
2022-08-18T12:08:02.202Z,24.46
2022-08-18T12:09:01.761Z,24.72
2022-08-18T12:11:01.758Z,25.29
2022-08-18T12:12:01.781Z,25.53
2022-08-18T12:13:01.773Z,25.68
2022-08-18T12:14:01.781Z,25.83
2022-08-18T12:15:10.499Z,25.97
2022-08-18T12:16:01.782Z,26.02
2022-08-18T12:17:01.918Z,26.07
2022-08-18T12:18:01.778Z,26.12
2022-08-18T12:19:03.076Z,26.15
2022-08-18T12:20:01.795Z,26.05
2022-08-18T12:21:02.846Z,25.93
2022-08-18T12:22:03.887Z,25.89
2022-08-18T12:23:01.812Z,25.89
2022-08-18T12:24:01.756Z,25.90
2022-08-18T12:25:01.803Z,25.88
2022-08-18T12:26:01.800Z,25.88
2022-08-18T12:27:01.821Z,25.85
2022-08-18T12:28:01.779Z,25.84
2022-08-18T12:29:01.887Z,25.85
2022-08-18T12:30:01.826Z,25.92
2022-08-18T12:31:01.791Z,26.04
2022-08-18T12:32:01.820Z,26.15
2022-08-18T12:33:10.193Z,26.21
2022-08-18T12:34:01.810Z,26.24
2022-08-18T12:35:07.217Z,26.31
2022-08-18T12:36:01.817Z,26.47
2022-08-18T12:37:01.825Z,26.61
2022-08-18T12:38:05.128Z,26.69
2022-08-18T12:39:01.817Z,26.78
2022-08-18T12:40:01.984Z,26.78
2022-08-18T12:41:01.828Z,26.92
2022-08-18T12:42:01.801Z,27.12
2022-08-18T12:43:01.887Z,27.33
2022-08-18T12:44:01.841Z,27.54
2022-08-18T12:45:01.842Z,27.67
2022-08-18T12:46:01.821Z,27.65
2022-08-18T12:47:01.813Z,27.75
2022-08-18T12:48:01.859Z,27.79
2022-08-18T12:49:01.803Z,27.78
2022-08-18T12:50:01.854Z,27.68
2022-08-18T12:51:01.873Z,27.80
2022-08-18T12:52:03.607Z,28.12
2022-08-18T12:53:01.846Z,28.41
2022-08-18T12:54:01.858Z,28.56
2022-08-18T12:55:01.870Z,28.66